Bookmark and Share
Track history (hours):
 

Grand Holiday

Last reported at 2014-Apr-23 15:33 UTC. Time now 2014-Apr-23 15:44 UTC.
Position N 44°19' E 008°29'.

Length 222 m; draft 7.7 m.

Type: Passenger vessel. MMSI: 255803790.

NotesDate/timePositionNaut miles runAvg speedWind from/ knotsBaromVisibWave heightAir tempDewpointWater temp
2014-Apr-23 15:33N 44°19' E 008°29'0 0.0
2014-Apr-23 14:32N 44°19' E 008°29'0 0.0
2014-Apr-23 13:29N 44°19' E 008°29'0 0.0
2014-Apr-23 12:29N 44°19' E 008°29'0 0.0
2014-Apr-23 11:28N 44°19' E 008°29'0 0.0
2014-Apr-23 10:28N 44°19' E 008°29'0 0.0
2014-Apr-23 09:33N 44°19' E 008°29'0 0.0
2014-Apr-23 08:33N 44°19' E 008°29'0 0.0
2014-Apr-23 07:32N 44°19' E 008°29'0 0.0
2014-Apr-23 06:29N 44°19' E 008°29'0 0.0
2014-Apr-23 05:19N 44°19' E 008°29'0 0.5
2014-Apr-23 04:33N 44°19' E 008°30'5 4.9
2014-Apr-23 03:34N 44°14' E 008°32'1010.2
2014-Apr-23 02:34N 44°04' E 008°32'1110.6
2014-Apr-23 01:33N 43°54' E 008°30'1111.1
2014-Apr-23 00:34N 43°45' E 008°20'1010.3
2014-Apr-22 23:33N 43°40' E 008°08'1211.2
2014-Apr-22 22:27N 43°36' E 007°52'1010.2
2014-Apr-22 21:27N 43°34' E 007°38'1010.6
2014-Apr-22 20:32N 43°37' E 007°26'7 5.8
2014-Apr-22 19:24N 43°42' E 007°19'0 0.0
2014-Apr-22 18:30N 43°42' E 007°19'0 0.0
2014-Apr-22 17:29N 43°42' E 007°19'0 0.0
2014-Apr-22 16:29N 43°42' E 007°19'0 0.0
2014-Apr-22 15:10N 43°42' E 007°19'0 0.0
2014-Apr-22 14:28N 43°42' E 007°19'0 0.1
2014-Apr-22 13:33N 43°42' E 007°19'0 0.1
2014-Apr-22 12:27N 43°42' E 007°19'0 0.0
2014-Apr-22 10:32N 43°42' E 007°19'0 0.0
2014-Apr-22 09:26N 43°42' E 007°19'0 0.1
2014-Apr-22 08:13N 43°42' E 007°19'0 0.0
2014-Apr-22 07:19N 43°42' E 007°19'0 0.0
2014-Apr-22 06:30N 43°42' E 007°19'0 0.1
2014-Apr-22 05:33N 43°42' E 007°19'6 5.8
2014-Apr-22 04:33N 43°36' E 007°18'1412.9
2014-Apr-22 03:30N 43°22' E 007°19'1513.2
2014-Apr-22 02:20N 43°10' E 007°06'1213.0
2014-Apr-22 01:26N 43°01' E 006°55'1213.4
2014-Apr-22 00:33N 42°52' E 006°46'1313.2
2014-Apr-21 23:33N 42°45' E 006°30'1514.7
2014-Apr-21 22:33N 42°45' E 006°10'1414.0
2014-Apr-21 21:33N 42°48' E 005°52'1413.7
2014-Apr-21 20:33N 42°53' E 005°34'1413.7
2014-Apr-21 19:30N 42°57' E 005°16'1413.7
2014-Apr-21 18:31N 43°10' E 005°09'1212.3
2014-Apr-21 17:32N 43°21' E 005°18'2 1.6
2014-Apr-21 16:21N 43°21' E 005°20'0 0.0
2014-Apr-21 15:29N 43°21' E 005°20'0 0.0
2014-Apr-21 14:29N 43°21' E 005°20'0 0.0
2014-Apr-21 12:04N 43°21' E 005°20'0 0.0
2014-Apr-21 10:33N 43°21' E 005°20'0 0.1
2014-Apr-21 06:33N 43°21' E 005°20'6 6.4
2014-Apr-21 05:34N 43°17' E 005°13'1212.1
2014-Apr-21 04:33N 43°07' E 005°04'1312.7
2014-Apr-21 03:32N 42°57' E 004°53'1413.5
2014-Apr-21 02:32N 42°46' E 004°41'1212.5
2014-Apr-21 01:33N 42°37' E 004°31'1413.9
2014-Apr-21 00:33N 42°26' E 004°19'1414.0
2014-Apr-20 23:33N 42°15' E 004°07'1313.3
2014-Apr-20 22:33N 42°05' E 003°55'1413.8
2014-Apr-20 21:33N 41°54' E 003°43'1313.3
2014-Apr-20 20:33N 41°44' E 003°32'1313.1
2014-Apr-20 19:33N 41°38' E 003°16'1313.0
2014-Apr-20 18:33N 41°33' E 003°01'1413.9
2014-Apr-20 17:32N 41°26' E 002°44'1414.0
2014-Apr-20 16:33N 41°20' E 002°27'1312.3
2014-Apr-20 15:29N 41°17' E 002°10'3 0.2
2014-Apr-20 05:07N 41°19' E 002°10'6 7.9
2014-Apr-20 04:20N 41°16' E 002°17'910.2
2014-Apr-20 03:25N 41°15' E 002°30'1111.9
2014-Apr-20 02:32N 41°14' E 002°44'1211.7
2014-Apr-20 01:29N 41°13' E 002°60'1212.1
2014-Apr-20 00:31N 41°11' E 003°15'1212.0
2014-Apr-19 23:33N 41°10' E 003°31'1211.7
2014-Apr-19 22:30N 41°08' E 003°47'1212.7
2014-Apr-19 21:33N 41°07' E 004°03'1212.0
2014-Apr-19 20:33N 41°05' E 004°18'293 7.0
2014-Apr-18 02:31N 42°01' E 010°42'3114.9
2014-Apr-18 00:25N 42°09' E 010°01'3016.0
2014-Apr-17 22:32N 42°37' E 009°46'2115.9
2014-Apr-17 21:13N 42°57' E 009°37'1815.7
2014-Apr-17 20:06N 43°15' E 009°39'916.6
2014-Apr-17 19:34N 43°24' E 009°41'1717.2
2014-Apr-17 18:34N 43°40' E 009°47'1716.9
2014-Apr-17 17:33N 43°57' E 009°52'9 8.8
2014-Apr-17 16:33N 44°05' E 009°49'0 0.0
2014-Apr-17 15:31N 44°05' E 009°49'0 0.0
2014-Apr-17 14:33N 44°05' E 009°49'0 0.0
2014-Apr-17 13:33N 44°05' E 009°49'0 0.0
2014-Apr-17 12:33N 44°05' E 009°49'0 0.0
2014-Apr-17 11:32N 44°05' E 009°49'0 0.0
2014-Apr-17 10:32N 44°05' E 009°49'0 0.0
2014-Apr-17 09:31N 44°05' E 009°49'0 0.0
2014-Apr-17 08:31N 44°05' E 009°49'0 0.0
2014-Apr-17 07:33N 44°05' E 009°49'0 0.0
2014-Apr-17 06:33N 44°05' E 009°49'0 0.0
2014-Apr-17 05:33N 44°05' E 009°49'3 2.5
2014-Apr-17 04:33N 44°03' E 009°52'1110.6
2014-Apr-17 03:34N 43°54' E 009°45'1717.0
2014-Apr-17 02:34N 43°59' E 009°23'1717.4
2014-Apr-17 01:33N 44°07' E 009°01'1717.2
2014-Apr-17 00:34N 44°12' E 008°39'2 1.8
2014-Apr-16 23:33N 44°14' E 008°38'6 5.9
2014-Apr-16 22:33N 44°18' E 008°32'2 1.8
2014-Apr-16 21:31N 44°19' E 008°29'0 0.0
2014-Apr-16 20:31N 44°19' E 008°29'0 0.0
2014-Apr-16 19:30N 44°19' E 008°29'0 0.0
2014-Apr-16 18:33N 44°19' E 008°29'0 0.0
2014-Apr-16 17:29N 44°19' E 008°29'0 0.0
2014-Apr-16 16:32N 44°19' E 008°29'0 0.0
2014-Apr-16 15:29N 44°19' E 008°29'0 0.0
2014-Apr-16 14:31N 44°19' E 008°29'0 0.0
2014-Apr-16 13:28N 44°19' E 008°29'0 0.0
2014-Apr-16 12:33N 44°19' E 008°29'0 0.0
2014-Apr-16 11:30N 44°19' E 008°29'0 0.0
2014-Apr-16 10:32N 44°19' E 008°29'0 0.0
2014-Apr-16 09:32N 44°19' E 008°29'0 0.0
2014-Apr-16 08:32N 44°19' E 008°29'0 0.0
2014-Apr-16 07:25N 44°19' E 008°29'0 0.0
2014-Apr-16 06:31N 44°19' E 008°29'0 0.0
2014-Apr-16 05:24N 44°19' E 008°29'0 0.1
2014-Apr-16 04:33N 44°19' E 008°29'5 5.1
2014-Apr-16 03:33N 44°14' E 008°33'1313.3
2014-Apr-16 02:33N 44°01' E 008°37'1313.2
2014-Apr-16 01:33N 43°48' E 008°35'1312.8
2014-Apr-16 00:33N 43°37' E 008°25'1414.5
2014-Apr-15 23:33N 43°32' E 008°06'2014.8
2014-Apr-15 22:12N 43°33' E 007°39'1015.0
2014-Apr-15 21:34N 43°37' E 007°27'7 3.6
2014-Apr-15 19:30N 43°42' E 007°19'0 0.1
2014-Apr-15 18:29N 43°42' E 007°19'0 0.1
2014-Apr-15 17:29N 43°42' E 007°19'0 0.1
2014-Apr-15 16:29N 43°42' E 007°19'0 0.0
2014-Apr-15 15:28N 43°42' E 007°19'0 0.1
2014-Apr-15 14:28N 43°42' E 007°19'0 0.0
2014-Apr-15 11:33N 43°42' E 007°19'0 0.0
2014-Apr-15 08:32N 43°42' E 007°19'0 0.0
2014-Apr-15 06:31N 43°42' E 007°19'0 0.0
2014-Apr-15 05:31N 43°42' E 007°19'6 3.1
2014-Apr-15 03:34N 43°36' E 007°18'1312.9
2014-Apr-15 02:33N 43°23' E 007°19'1313.0
2014-Apr-15 01:33N 43°12' E 007°09'1313.5
2014-Apr-15 00:33N 43°01' E 006°59'1413.8
2014-Apr-14 23:34N 42°50' E 006°47'1211.7
2014-Apr-14 22:34N 42°45' E 006°33'1413.8
2014-Apr-14 21:33N 42°45' E 006°14'1413.7
2014-Apr-14 20:34N 42°47' E 005°56'1413.7
2014-Apr-14 19:34N 42°51' E 005°38'1313.4
2014-Apr-14 18:34N 42°56' E 005°21'1212.0
2014-Apr-14 17:33N 43°06' E 005°11'1313.1
2014-Apr-14 16:34N 43°18' E 005°14'5 0.4
2014-Apr-14 05:33N 43°21' E 005°20'10013.4
2014-Apr-13 22:09N 42°04' E 003°54'813.9
2014-Apr-13 21:33N 41°57' E 003°47'1313.5
2014-Apr-13 20:33N 41°47' E 003°35'2813.3
2014-Apr-13 18:26N 41°33' E 003°03'1314.2
2014-Apr-13 17:33N 41°28' E 002°47'1414.0
2014-Apr-13 16:33N 41°21' E 002°31'  

Dump ship's entire track history

sailing weather and tide predictions

Grand Holiday — CQNH — position and weather